Pagrindinis puslapis
METAR-TAF:

METAR-TAF

Oro uostai :

Kabulas, Afganistanas

platuma: 34-38N, ilguma: 069-12E, Aukštis: 1789 m

Dabartinis oras

Ataskaita buvo paskelbta 16 minutes, ne 22:50 UTC
Vėjas 2 kt nuo kintamojo kryptimis
Temperatūra 15°C
Drėgmė 29%
Slėgis 1021 hPa
Matomumas 10 km arba daugiau
nėra debesų žemiau 1500 m ir nėra kamuolinių lietaus debesų

METAR: OAKB 192250Z VRB02KT CAVOK 15/M03 Q1021 NOSIG RMK A3017 BLU BLU

Laikas: 03:36 (23:06 UTC)

Prognozė

Ataskaita buvo paskelbta 6 valandos ir 1 minutes, ne 17:05 UTC
Prognozė galioja nuo 19 metu 18 UTC su 20 metu 18 UTC
Vėjas 2 kt nuo kintamojo kryptimis
Matomumas 10 km arba daugiau
nėra debesų žemiau 1500 m ir nėra kamuolinių lietaus debesų
Tapsmas
nuo 20 metu 08 UTC su 20 metu 10 UTC
Vėjas 10 kt iš Rytų
Laikinai
nuo 19 metu 11 UTC su 19 metu 15 UTC
Vėjas 15 kt iš Šiaurės Rytų su gūsio iki 25 kt

TAF: OAKB 191705Z 1918/2018 VRB02KT CAVOK BECMG 2008/2010 08010KT TEMPO 1911/1915 05015G25KT

Orai ataskaitas ir orų prognozės (METAR, TAF).

turimą stotys yra geltonos ir raudonos taškus žemėlapyje.

Perkelti pele per norėdami pamatyti stoties vardą.

Tada spustelėkite, norėdami matyti oro stebėjimo ir prognozės.

Norėdami pakeisti žemėlapį: spustelėkite ant žalios mygtukų su juodo kryžiaus žemyn,; žalią mygtuką su brūkšneliu, jei norite nutolinti; arba žalių rodyklių gretimoms žemėlapius.


METAR-TAF: